sensor_id;sensor_type;location;lat;lon;timestamp;P1;durP1;ratioP1;P2;durP2;ratioP2
67156;SDS011;54086;50.126;8.710;2022-07-29T00:01:29;7.30;;;2.10;;
67156;SDS011;54086;50.126;8.710;2022-07-29T00:03:55;6.68;;;1.88;;
67156;SDS011;54086;50.126;8.710;2022-07-29T00:06:20;6.17;;;1.93;;
67156;SDS011;54086;50.126;8.710;2022-07-29T00:08:46;9.23;;;2.20;;
67156;SDS011;54086;50.126;8.710;2022-07-29T00:11:11;7.45;;;1.80;;
67156;SDS011;54086;50.126;8.710;2022-07-29T00:13:37;6.77;;;1.93;;
67156;SDS011;54086;50.126;8.710;2022-07-29T00:16:02;7.00;;;1.95;;
67156;SDS011;54086;50.126;8.710;2022-07-29T00:18:28;7.43;;;2.30;;
67156;SDS011;54086;50.126;8.710;2022-07-29T00:20:54;6.65;;;1.88;;
67156;SDS011;54086;50.126;8.710;2022-07-29T00:23:19;6.73;;;2.07;;
67156;SDS011;54086;50.126;8.710;2022-07-29T00:25:44;6.70;;;2.30;;
67156;SDS011;54086;50.126;8.710;2022-07-29T00:28:10;5.33;;;1.60;;
67156;SDS011;54086;50.126;8.710;2022-07-29T00:30:35;8.30;;;2.13;;
67156;SDS011;54086;50.126;8.710;2022-07-29T00:33:00;6.70;;;1.93;;
67156;SDS011;54086;50.126;8.710;2022-07-29T00:35:26;6.43;;;2.00;;
67156;SDS011;54086;50.126;8.710;2022-07-29T00:38:13;6.50;;;1.90;;
67156;SDS011;54086;50.126;8.710;2022-07-29T00:40:40;9.02;;;2.90;;
67156;SDS011;54086;50.126;8.710;2022-07-29T00:43:06;7.57;;;2.50;;
67156;SDS011;54086;50.126;8.710;2022-07-29T00:45:31;7.03;;;2.35;;
67156;SDS011;54086;50.126;8.710;2022-07-29T00:47:56;5.03;;;2.03;;
67156;SDS011;54086;50.126;8.710;2022-07-29T00:50:22;8.17;;;2.20;;
67156;SDS011;54086;50.126;8.710;2022-07-29T00:52:48;6.68;;;1.80;;
67156;SDS011;54086;50.126;8.710;2022-07-29T00:55:15;6.22;;;2.30;;
67156;SDS011;54086;50.126;8.710;2022-07-29T00:57:41;6.83;;;2.53;;
67156;SDS011;54086;50.126;8.710;2022-07-29T01:00:09;6.63;;;2.20;;
67156;SDS011;54086;50.126;8.710;2022-07-29T01:02:36;6.57;;;2.50;;
67156;SDS011;54086;50.126;8.710;2022-07-29T01:05:02;6.73;;;2.30;;
67156;SDS011;54086;50.126;8.710;2022-07-29T01:07:29;8.48;;;1.98;;
67156;SDS011;54086;50.126;8.710;2022-07-29T01:09:55;7.28;;;2.00;;
67156;SDS011;54086;50.126;8.710;2022-07-29T01:12:23;7.27;;;2.00;;
67156;SDS011;54086;50.126;8.710;2022-07-29T01:14:51;7.07;;;2.42;;
67156;SDS011;54086;50.126;8.710;2022-07-29T01:17:21;9.65;;;2.35;;
67156;SDS011;54086;50.126;8.710;2022-07-29T01:30:28;7.20;;;2.40;;
67156;SDS011;54086;50.126;8.710;2022-07-29T01:32:56;6.82;;;2.20;;
67156;SDS011;54086;50.126;8.710;2022-07-29T01:35:28;7.45;;;2.10;;
67156;SDS011;54086;50.126;8.710;2022-07-29T01:38:13;6.05;;;2.30;;
67156;SDS011;54086;50.126;8.710;2022-07-29T01:40:52;8.52;;;2.45;;
67156;SDS011;54086;50.126;8.710;2022-07-29T01:43:25;7.57;;;2.07;;
67156;SDS011;54086;50.126;8.710;2022-07-29T01:46:05;9.50;;;2.00;;
67156;SDS011;54086;50.126;8.710;2022-07-29T01:51:12;6.38;;;2.20;;
67156;SDS011;54086;50.126;8.710;2022-07-29T01:56:18;5.97;;;1.93;;
67156;SDS011;54086;50.126;8.710;2022-07-29T01:58:46;5.93;;;2.25;;
67156;SDS011;54086;50.126;8.710;2022-07-29T02:01:13;7.13;;;2.13;;
67156;SDS011;54086;50.126;8.710;2022-07-29T02:03:39;7.05;;;2.20;;
67156;SDS011;54086;50.126;8.710;2022-07-29T02:06:11;6.40;;;2.30;;
67156;SDS011;54086;50.126;8.710;2022-07-29T02:08:40;8.17;;;2.43;;
67156;SDS011;54086;50.126;8.710;2022-07-29T02:11:06;7.68;;;2.10;;
67156;SDS011;54086;50.126;8.710;2022-07-29T02:13:33;7.78;;;2.65;;
67156;SDS011;54086;50.126;8.710;2022-07-29T02:16:00;8.23;;;2.38;;
67156;SDS011;54086;50.126;8.710;2022-07-29T02:18:27;7.60;;;2.65;;
67156;SDS011;54086;50.126;8.710;2022-07-29T02:20:55;7.53;;;2.60;;
67156;SDS011;54086;50.126;8.710;2022-07-29T02:23:23;8.18;;;2.50;;
67156;SDS011;54086;50.126;8.710;2022-07-29T02:25:51;7.45;;;2.55;;
67156;SDS011;54086;50.126;8.710;2022-07-29T02:28:19;8.48;;;2.55;;
67156;SDS011;54086;50.126;8.710;2022-07-29T02:30:47;6.68;;;2.60;;
67156;SDS011;54086;50.126;8.710;2022-07-29T02:33:16;8.13;;;2.30;;
67156;SDS011;54086;50.126;8.710;2022-07-29T02:35:43;6.22;;;2.60;;
67156;SDS011;54086;50.126;8.710;2022-07-29T02:38:11;7.38;;;2.40;;
67156;SDS011;54086;50.126;8.710;2022-07-29T02:40:58;10.00;;;2.80;;
67156;SDS011;54086;50.126;8.710;2022-07-29T02:43:28;8.68;;;2.55;;
67156;SDS011;54086;50.126;8.710;2022-07-29T02:45:55;7.43;;;2.50;;
67156;SDS011;54086;50.126;8.710;2022-07-29T02:48:27;7.22;;;2.55;;
67156;SDS011;54086;50.126;8.710;2022-07-29T02:51:01;12.07;;;2.60;;
67156;SDS011;54086;50.126;8.710;2022-07-29T02:53:32;7.20;;;2.70;;
67156;SDS011;54086;50.126;8.710;2022-07-29T02:55:59;9.32;;;3.42;;
67156;SDS011;54086;50.126;8.710;2022-07-29T02:58:46;9.07;;;2.93;;
67156;SDS011;54086;50.126;8.710;2022-07-29T03:01:22;5.70;;;2.35;;
67156;SDS011;54086;50.126;8.710;2022-07-29T03:03:49;8.52;;;2.80;;
67156;SDS011;54086;50.126;8.710;2022-07-29T03:06:17;9.15;;;2.60;;
67156;SDS011;54086;50.126;8.710;2022-07-29T03:08:43;7.97;;;3.70;;
67156;SDS011;54086;50.126;8.710;2022-07-29T03:11:10;8.67;;;2.60;;
67156;SDS011;54086;50.126;8.710;2022-07-29T03:13:36;9.18;;;3.20;;
67156;SDS011;54086;50.126;8.710;2022-07-29T03:16:02;6.70;;;2.70;;
67156;SDS011;54086;50.126;8.710;2022-07-29T03:18:29;7.85;;;3.00;;
67156;SDS011;54086;50.126;8.710;2022-07-29T03:20:55;7.57;;;2.90;;
67156;SDS011;54086;50.126;8.710;2022-07-29T03:23:21;9.40;;;3.10;;
67156;SDS011;54086;50.126;8.710;2022-07-29T03:25:52;8.68;;;2.55;;
67156;SDS011;54086;50.126;8.710;2022-07-29T03:28:18;7.22;;;2.83;;
67156;SDS011;54086;50.126;8.710;2022-07-29T03:30:44;7.10;;;2.80;;
67156;SDS011;54086;50.126;8.710;2022-07-29T03:33:10;8.35;;;2.70;;
67156;SDS011;54086;50.126;8.710;2022-07-29T03:35:35;6.57;;;2.50;;
67156;SDS011;54086;50.126;8.710;2022-07-29T03:38:01;8.20;;;2.83;;
67156;SDS011;54086;50.126;8.710;2022-07-29T03:40:27;7.55;;;2.80;;
67156;SDS011;54086;50.126;8.710;2022-07-29T03:42:58;7.40;;;2.67;;
67156;SDS011;54086;50.126;8.710;2022-07-29T03:45:26;7.43;;;2.72;;
67156;SDS011;54086;50.126;8.710;2022-07-29T03:47:54;7.05;;;2.55;;
67156;SDS011;54086;50.126;8.710;2022-07-29T03:50:24;7.88;;;2.67;;
67156;SDS011;54086;50.126;8.710;2022-07-29T03:52:50;7.10;;;2.50;;
67156;SDS011;54086;50.126;8.710;2022-07-29T03:55:15;6.63;;;2.70;;
67156;SDS011;54086;50.126;8.710;2022-07-29T03:57:41;7.93;;;3.03;;
67156;SDS011;54086;50.126;8.710;2022-07-29T04:00:09;9.43;;;2.88;;
67156;SDS011;54086;50.126;8.710;2022-07-29T04:02:35;7.53;;;3.17;;
67156;SDS011;54086;50.126;8.710;2022-07-29T04:05:01;9.80;;;3.00;;
67156;SDS011;54086;50.126;8.710;2022-07-29T04:07:27;9.93;;;3.20;;
67156;SDS011;54086;50.126;8.710;2022-07-29T04:09:52;8.43;;;2.90;;
67156;SDS011;54086;50.126;8.710;2022-07-29T04:12:18;7.53;;;2.43;;
67156;SDS011;54086;50.126;8.710;2022-07-29T04:14:43;6.60;;;3.17;;
67156;SDS011;54086;50.126;8.710;2022-07-29T04:17:08;12.55;;;5.25;;
67156;SDS011;54086;50.126;8.710;2022-07-29T04:19:34;8.30;;;2.80;;
67156;SDS011;54086;50.126;8.710;2022-07-29T04:22:00;11.43;;;5.27;;
67156;SDS011;54086;50.126;8.710;2022-07-29T04:24:25;8.90;;;2.88;;
67156;SDS011;54086;50.126;8.710;2022-07-29T04:26:51;8.60;;;2.60;;
67156;SDS011;54086;50.126;8.710;2022-07-29T04:29:16;9.82;;;3.08;;
67156;SDS011;54086;50.126;8.710;2022-07-29T04:31:42;7.77;;;3.03;;
67156;SDS011;54086;50.126;8.710;2022-07-29T04:34:08;8.77;;;2.97;;
67156;SDS011;54086;50.126;8.710;2022-07-29T04:36:34;7.00;;;2.60;;
67156;SDS011;54086;50.126;8.710;2022-07-29T04:38:59;6.43;;;2.30;;
67156;SDS011;54086;50.126;8.710;2022-07-29T04:41:26;6.83;;;2.50;;
67156;SDS011;54086;50.126;8.710;2022-07-29T04:43:51;7.20;;;2.70;;
67156;SDS011;54086;50.126;8.710;2022-07-29T04:46:17;6.97;;;2.37;;
67156;SDS011;54086;50.126;8.710;2022-07-29T04:48:42;9.97;;;3.30;;
67156;SDS011;54086;50.126;8.710;2022-07-29T04:51:10;8.27;;;2.58;;
67156;SDS011;54086;50.126;8.710;2022-07-29T04:53:35;9.33;;;2.30;;
67156;SDS011;54086;50.126;8.710;2022-07-29T04:56:01;8.70;;;2.30;;
67156;SDS011;54086;50.126;8.710;2022-07-29T04:58:27;7.13;;;2.63;;
67156;SDS011;54086;50.126;8.710;2022-07-29T05:00:52;7.90;;;2.30;;
67156;SDS011;54086;50.126;8.710;2022-07-29T05:03:18;11.70;;;2.40;;
67156;SDS011;54086;50.126;8.710;2022-07-29T05:05:43;7.73;;;2.40;;
67156;SDS011;54086;50.126;8.710;2022-07-29T05:08:08;8.93;;;2.40;;
67156;SDS011;54086;50.126;8.710;2022-07-29T05:10:34;7.50;;;2.60;;
67156;SDS011;54086;50.126;8.710;2022-07-29T05:13:03;10.05;;;2.42;;
67156;SDS011;54086;50.126;8.710;2022-07-29T05:15:33;7.93;;;2.38;;
67156;SDS011;54086;50.126;8.710;2022-07-29T05:17:59;8.35;;;2.22;;
67156;SDS011;54086;50.126;8.710;2022-07-29T05:20:25;12.07;;;2.72;;
67156;SDS011;54086;50.126;8.710;2022-07-29T05:22:53;10.60;;;2.60;;
67156;SDS011;54086;50.126;8.710;2022-07-29T05:25:22;10.63;;;3.38;;
67156;SDS011;54086;50.126;8.710;2022-07-29T05:27:49;10.20;;;2.70;;
67156;SDS011;54086;50.126;8.710;2022-07-29T05:30:14;9.73;;;2.65;;
67156;SDS011;54086;50.126;8.710;2022-07-29T05:32:40;12.03;;;3.60;;
67156;SDS011;54086;50.126;8.710;2022-07-29T05:35:05;11.10;;;2.67;;
67156;SDS011;54086;50.126;8.710;2022-07-29T05:37:31;12.20;;;2.88;;
67156;SDS011;54086;50.126;8.710;2022-07-29T05:39:57;8.30;;;2.80;;
67156;SDS011;54086;50.126;8.710;2022-07-29T05:42:22;10.07;;;3.20;;
67156;SDS011;54086;50.126;8.710;2022-07-29T05:44:48;9.82;;;2.65;;
67156;SDS011;54086;50.126;8.710;2022-07-29T05:47:13;9.90;;;2.90;;
67156;SDS011;54086;50.126;8.710;2022-07-29T05:49:39;7.87;;;2.60;;
67156;SDS011;54086;50.126;8.710;2022-07-29T05:52:04;8.97;;;3.00;;
67156;SDS011;54086;50.126;8.710;2022-07-29T05:54:29;9.73;;;3.37;;
67156;SDS011;54086;50.126;8.710;2022-07-29T05:56:55;8.53;;;3.23;;
67156;SDS011;54086;50.126;8.710;2022-07-29T05:59:21;9.60;;;2.88;;
67156;SDS011;54086;50.126;8.710;2022-07-29T06:01:46;11.33;;;3.93;;
67156;SDS011;54086;50.126;8.710;2022-07-29T06:04:11;11.70;;;3.47;;
67156;SDS011;54086;50.126;8.710;2022-07-29T06:06:37;6.10;;;2.40;;
67156;SDS011;54086;50.126;8.710;2022-07-29T06:09:02;9.40;;;2.33;;
67156;SDS011;54086;50.126;8.710;2022-07-29T06:11:28;11.55;;;2.85;;
67156;SDS011;54086;50.126;8.710;2022-07-29T06:13:53;11.37;;;2.93;;
67156;SDS011;54086;50.126;8.710;2022-07-29T06:16:19;8.70;;;2.73;;
67156;SDS011;54086;50.126;8.710;2022-07-29T06:18:44;7.30;;;2.57;;
67156;SDS011;54086;50.126;8.710;2022-07-29T06:21:10;8.10;;;2.60;;
67156;SDS011;54086;50.126;8.710;2022-07-29T06:23:36;8.17;;;3.17;;
67156;SDS011;54086;50.126;8.710;2022-07-29T06:26:02;8.60;;;2.93;;
67156;SDS011;54086;50.126;8.710;2022-07-29T06:28:27;7.72;;;2.85;;
67156;SDS011;54086;50.126;8.710;2022-07-29T06:30:53;7.27;;;2.33;;
67156;SDS011;54086;50.126;8.710;2022-07-29T06:33:18;10.20;;;2.77;;
67156;SDS011;54086;50.126;8.710;2022-07-29T06:35:44;7.45;;;2.35;;
67156;SDS011;54086;50.126;8.710;2022-07-29T06:38:12;8.50;;;2.50;;
67156;SDS011;54086;50.126;8.710;2022-07-29T06:40:44;8.33;;;2.70;;
67156;SDS011;54086;50.126;8.710;2022-07-29T06:43:26;7.82;;;2.30;;
67156;SDS011;54086;50.126;8.710;2022-07-29T06:45:53;8.68;;;2.83;;
67156;SDS011;54086;50.126;8.710;2022-07-29T06:48:19;7.90;;;2.57;;
67156;SDS011;54086;50.126;8.710;2022-07-29T06:50:44;8.48;;;2.50;;
67156;SDS011;54086;50.126;8.710;2022-07-29T06:53:10;9.63;;;2.40;;
67156;SDS011;54086;50.126;8.710;2022-07-29T06:55:35;7.43;;;2.33;;
67156;SDS011;54086;50.126;8.710;2022-07-29T06:58:01;8.50;;;2.25;;
67156;SDS011;54086;50.126;8.710;2022-07-29T07:00:27;6.50;;;2.40;;
67156;SDS011;54086;50.126;8.710;2022-07-29T07:02:53;9.63;;;4.97;;
67156;SDS011;54086;50.126;8.710;2022-07-29T07:05:18;7.17;;;2.40;;
67156;SDS011;54086;50.126;8.710;2022-07-29T07:07:43;10.63;;;2.30;;
67156;SDS011;54086;50.126;8.710;2022-07-29T07:10:09;10.93;;;3.70;;
67156;SDS011;54086;50.126;8.710;2022-07-29T07:12:34;10.40;;;2.70;;
67156;SDS011;54086;50.126;8.710;2022-07-29T07:15:00;8.90;;;2.30;;
67156;SDS011;54086;50.126;8.710;2022-07-29T07:17:25;9.23;;;2.60;;
67156;SDS011;54086;50.126;8.710;2022-07-29T07:19:51;8.30;;;3.10;;
67156;SDS011;54086;50.126;8.710;2022-07-29T07:22:16;7.10;;;2.37;;
67156;SDS011;54086;50.126;8.710;2022-07-29T07:24:42;7.97;;;2.80;;
67156;SDS011;54086;50.126;8.710;2022-07-29T07:27:07;7.40;;;2.53;;
67156;SDS011;54086;50.126;8.710;2022-07-29T07:29:32;7.15;;;2.97;;
67156;SDS011;54086;50.126;8.710;2022-07-29T07:31:58;10.67;;;2.70;;
67156;SDS011;54086;50.126;8.710;2022-07-29T07:34:23;7.27;;;2.53;;
67156;SDS011;54086;50.126;8.710;2022-07-29T07:36:48;13.17;;;2.67;;
67156;SDS011;54086;50.126;8.710;2022-07-29T07:39:14;9.23;;;2.77;;
67156;SDS011;54086;50.126;8.710;2022-07-29T07:41:39;6.28;;;2.40;;
67156;SDS011;54086;50.126;8.710;2022-07-29T07:44:05;7.27;;;2.97;;
67156;SDS011;54086;50.126;8.710;2022-07-29T07:46:31;7.93;;;2.80;;
67156;SDS011;54086;50.126;8.710;2022-07-29T07:48:56;8.90;;;2.67;;
67156;SDS011;54086;50.126;8.710;2022-07-29T07:51:22;6.83;;;2.80;;
67156;SDS011;54086;50.126;8.710;2022-07-29T07:53:47;8.70;;;2.30;;
67156;SDS011;54086;50.126;8.710;2022-07-29T07:56:15;10.23;;;2.80;;
67156;SDS011;54086;50.126;8.710;2022-07-29T07:58:41;8.00;;;2.90;;
67156;SDS011;54086;50.126;8.710;2022-07-29T08:01:06;8.10;;;2.92;;
67156;SDS011;54086;50.126;8.710;2022-07-29T08:03:33;7.97;;;2.50;;
67156;SDS011;54086;50.126;8.710;2022-07-29T08:05:58;8.23;;;3.28;;
67156;SDS011;54086;50.126;8.710;2022-07-29T08:08:25;10.57;;;2.80;;
67156;SDS011;54086;50.126;8.710;2022-07-29T08:10:50;6.97;;;2.67;;
67156;SDS011;54086;50.126;8.710;2022-07-29T08:13:20;9.85;;;2.45;;
67156;SDS011;54086;50.126;8.710;2022-07-29T08:15:47;8.73;;;2.70;;
67156;SDS011;54086;50.126;8.710;2022-07-29T08:18:22;11.77;;;3.25;;
67156;SDS011;54086;50.126;8.710;2022-07-29T08:20:48;7.65;;;2.72;;
67156;SDS011;54086;50.126;8.710;2022-07-29T08:23:13;6.80;;;2.80;;
67156;SDS011;54086;50.126;8.710;2022-07-29T08:25:38;9.17;;;2.83;;
67156;SDS011;54086;50.126;8.710;2022-07-29T08:28:04;8.15;;;2.90;;
67156;SDS011;54086;50.126;8.710;2022-07-29T08:30:30;8.52;;;2.90;;
67156;SDS011;54086;50.126;8.710;2022-07-29T08:32:57;8.07;;;3.27;;
67156;SDS011;54086;50.126;8.710;2022-07-29T08:35:23;9.07;;;3.42;;
67156;SDS011;54086;50.126;8.710;2022-07-29T08:37:49;9.15;;;3.00;;
67156;SDS011;54086;50.126;8.710;2022-07-29T08:40:15;7.88;;;3.15;;
67156;SDS011;54086;50.126;8.710;2022-07-29T08:42:41;9.23;;;3.83;;
67156;SDS011;54086;50.126;8.710;2022-07-29T08:45:06;8.27;;;3.07;;
67156;SDS011;54086;50.126;8.710;2022-07-29T08:47:32;15.60;;;4.68;;
67156;SDS011;54086;50.126;8.710;2022-07-29T08:49:58;7.90;;;3.45;;
67156;SDS011;54086;50.126;8.710;2022-07-29T08:52:24;7.50;;;3.00;;
67156;SDS011;54086;50.126;8.710;2022-07-29T08:54:52;10.45;;;3.50;;
67156;SDS011;54086;50.126;8.710;2022-07-29T08:57:18;8.43;;;3.15;;
67156;SDS011;54086;50.126;8.710;2022-07-29T08:59:44;8.63;;;3.20;;
67156;SDS011;54086;50.126;8.710;2022-07-29T09:02:12;9.93;;;3.20;;
67156;SDS011;54086;50.126;8.710;2022-07-29T09:04:45;9.50;;;3.53;;
67156;SDS011;54086;50.126;8.710;2022-07-29T09:07:13;7.80;;;3.00;;
67156;SDS011;54086;50.126;8.710;2022-07-29T09:09:40;9.47;;;3.50;;
67156;SDS011;54086;50.126;8.710;2022-07-29T09:12:06;6.90;;;3.08;;
67156;SDS011;54086;50.126;8.710;2022-07-29T09:14:33;8.73;;;3.45;;
67156;SDS011;54086;50.126;8.710;2022-07-29T09:16:59;9.53;;;3.63;;
67156;SDS011;54086;50.126;8.710;2022-07-29T09:21:59;8.02;;;3.22;;
67156;SDS011;54086;50.126;8.710;2022-07-29T09:26:59;9.23;;;3.47;;
67156;SDS011;54086;50.126;8.710;2022-07-29T09:29:26;6.63;;;3.30;;
67156;SDS011;54086;50.126;8.710;2022-07-29T09:31:53;8.15;;;3.20;;
67156;SDS011;54086;50.126;8.710;2022-07-29T09:34:24;7.88;;;3.10;;
67156;SDS011;54086;50.126;8.710;2022-07-29T09:36:55;8.15;;;3.20;;
67156;SDS011;54086;50.126;8.710;2022-07-29T09:39:30;7.70;;;3.23;;
67156;SDS011;54086;50.126;8.710;2022-07-29T09:41:59;10.95;;;2.92;;
67156;SDS011;54086;50.126;8.710;2022-07-29T09:44:26;8.27;;;3.55;;
67156;SDS011;54086;50.126;8.710;2022-07-29T09:47:06;7.15;;;3.30;;
67156;SDS011;54086;50.126;8.710;2022-07-29T09:49:32;7.43;;;3.30;;
67156;SDS011;54086;50.126;8.710;2022-07-29T09:54:31;9.18;;;3.40;;
67156;SDS011;54086;50.126;8.710;2022-07-29T09:57:01;12.73;;;3.45;;
67156;SDS011;54086;50.126;8.710;2022-07-29T09:59:28;8.23;;;3.20;;
67156;SDS011;54086;50.126;8.710;2022-07-29T10:01:53;7.40;;;3.40;;
67156;SDS011;54086;50.126;8.710;2022-07-29T10:04:19;7.13;;;3.57;;
67156;SDS011;54086;50.126;8.710;2022-07-29T10:09:23;7.32;;;3.28;;
67156;SDS011;54086;50.126;8.710;2022-07-29T10:14:50;7.22;;;3.38;;
67156;SDS011;54086;50.126;8.710;2022-07-29T10:17:16;7.85;;;3.22;;
67156;SDS011;54086;50.126;8.710;2022-07-29T10:19:43;7.70;;;3.10;;
67156;SDS011;54086;50.126;8.710;2022-07-29T10:22:10;8.83;;;3.30;;
67156;SDS011;54086;50.126;8.710;2022-07-29T10:24:37;8.43;;;3.70;;
67156;SDS011;54086;50.126;8.710;2022-07-29T10:27:05;7.03;;;2.92;;
67156;SDS011;54086;50.126;8.710;2022-07-29T10:29:32;7.77;;;3.43;;
67156;SDS011;54086;50.126;8.710;2022-07-29T10:37:31;9.27;;;3.78;;
67156;SDS011;54086;50.126;8.710;2022-07-29T10:43:23;8.73;;;3.55;;
67156;SDS011;54086;50.126;8.710;2022-07-29T10:45:56;8.73;;;3.70;;
67156;SDS011;54086;50.126;8.710;2022-07-29T10:48:23;7.37;;;3.30;;
67156;SDS011;54086;50.126;8.710;2022-07-29T10:50:59;6.80;;;3.40;;
67156;SDS011;54086;50.126;8.710;2022-07-29T10:56:24;8.73;;;3.50;;
67156;SDS011;54086;50.126;8.710;2022-07-29T11:01:49;10.73;;;4.20;;
67156;SDS011;54086;50.126;8.710;2022-07-29T11:04:16;10.73;;;3.67;;
67156;SDS011;54086;50.126;8.710;2022-07-29T11:07:10;10.17;;;3.77;;
67156;SDS011;54086;50.126;8.710;2022-07-29T11:09:37;9.93;;;3.80;;
67156;SDS011;54086;50.126;8.710;2022-07-29T11:12:03;9.20;;;3.47;;
67156;SDS011;54086;50.126;8.710;2022-07-29T11:14:58;7.28;;;3.20;;
67156;SDS011;54086;50.126;8.710;2022-07-29T11:17:25;8.45;;;3.40;;
67156;SDS011;54086;50.126;8.710;2022-07-29T11:19:51;6.67;;;3.17;;
67156;SDS011;54086;50.126;8.710;2022-07-29T11:22:32;9.70;;;3.87;;
67156;SDS011;54086;50.126;8.710;2022-07-29T11:28:09;9.52;;;3.85;;
67156;SDS011;54086;50.126;8.710;2022-07-29T11:30:47;7.83;;;3.53;;
67156;SDS011;54086;50.126;8.710;2022-07-29T11:33:27;8.37;;;3.67;;
67156;SDS011;54086;50.126;8.710;2022-07-29T11:36:12;8.48;;;3.58;;
67156;SDS011;54086;50.126;8.710;2022-07-29T11:38:39;8.10;;;3.58;;
67156;SDS011;54086;50.126;8.710;2022-07-29T11:43:46;7.07;;;3.58;;
67156;SDS011;54086;50.126;8.710;2022-07-29T11:46:12;6.97;;;3.88;;
67156;SDS011;54086;50.126;8.710;2022-07-29T11:48:41;7.33;;;4.03;;
67156;SDS011;54086;50.126;8.710;2022-07-29T11:51:11;7.72;;;3.97;;
67156;SDS011;54086;50.126;8.710;2022-07-29T11:53:37;7.53;;;3.42;;
67156;SDS011;54086;50.126;8.710;2022-07-29T11:56:04;10.93;;;3.95;;
67156;SDS011;54086;50.126;8.710;2022-07-29T11:58:38;7.85;;;3.95;;
67156;SDS011;54086;50.126;8.710;2022-07-29T12:01:03;7.18;;;3.70;;
67156;SDS011;54086;50.126;8.710;2022-07-29T12:03:30;10.63;;;4.30;;
67156;SDS011;54086;50.126;8.710;2022-07-29T12:05:55;7.93;;;3.93;;
67156;SDS011;54086;50.126;8.710;2022-07-29T12:08:21;7.47;;;3.90;;
67156;SDS011;54086;50.126;8.710;2022-07-29T12:10:48;8.77;;;4.40;;
67156;SDS011;54086;50.126;8.710;2022-07-29T12:13:18;8.75;;;4.25;;
67156;SDS011;54086;50.126;8.710;2022-07-29T12:15:55;6.82;;;4.05;;
67156;SDS011;54086;50.126;8.710;2022-07-29T12:18:25;7.88;;;4.30;;
67156;SDS011;54086;50.126;8.710;2022-07-29T12:21:00;7.90;;;4.30;;
67156;SDS011;54086;50.126;8.710;2022-07-29T12:23:28;8.15;;;4.50;;
67156;SDS011;54086;50.126;8.710;2022-07-29T12:25:54;8.85;;;3.92;;
67156;SDS011;54086;50.126;8.710;2022-07-29T12:28:20;7.93;;;4.20;;
67156;SDS011;54086;50.126;8.710;2022-07-29T12:30:47;9.87;;;4.33;;
67156;SDS011;54086;50.126;8.710;2022-07-29T12:33:21;8.40;;;4.47;;
67156;SDS011;54086;50.126;8.710;2022-07-29T12:35:59;9.13;;;4.13;;
67156;SDS011;54086;50.126;8.710;2022-07-29T12:38:26;9.38;;;4.68;;
67156;SDS011;54086;50.126;8.710;2022-07-29T12:40:53;8.27;;;4.07;;
67156;SDS011;54086;50.126;8.710;2022-07-29T12:45:49;9.77;;;4.60;;
67156;SDS011;54086;50.126;8.710;2022-07-29T12:48:17;7.80;;;4.32;;
67156;SDS011;54086;50.126;8.710;2022-07-29T12:50:53;8.63;;;4.95;;
67156;SDS011;54086;50.126;8.710;2022-07-29T12:53:22;8.35;;;4.65;;
67156;SDS011;54086;50.126;8.710;2022-07-29T12:55:49;8.37;;;4.90;;
67156;SDS011;54086;50.126;8.710;2022-07-29T12:58:52;7.20;;;4.17;;
67156;SDS011;54086;50.126;8.710;2022-07-29T13:01:12;9.52;;;4.57;;
67156;SDS011;54086;50.126;8.710;2022-07-29T13:03:50;7.95;;;4.53;;
67156;SDS011;54086;50.126;8.710;2022-07-29T13:09:09;7.75;;;4.38;;
67156;SDS011;54086;50.126;8.710;2022-07-29T13:11:37;9.73;;;4.45;;
67156;SDS011;54086;50.126;8.710;2022-07-29T13:14:29;8.07;;;4.40;;
67156;SDS011;54086;50.126;8.710;2022-07-29T13:17:02;9.02;;;4.40;;
67156;SDS011;54086;50.126;8.710;2022-07-29T13:19:38;7.85;;;4.65;;
67156;SDS011;54086;50.126;8.710;2022-07-29T13:22:17;9.63;;;4.57;;
67156;SDS011;54086;50.126;8.710;2022-07-29T13:24:51;7.33;;;4.20;;
67156;SDS011;54086;50.126;8.710;2022-07-29T13:27:20;9.73;;;4.00;;
67156;SDS011;54086;50.126;8.710;2022-07-29T13:29:47;11.63;;;3.85;;
67156;SDS011;54086;50.126;8.710;2022-07-29T13:32:13;9.57;;;4.40;;
67156;SDS011;54086;50.126;8.710;2022-07-29T13:34:39;8.35;;;4.32;;
67156;SDS011;54086;50.126;8.710;2022-07-29T13:37:05;9.98;;;3.85;;
67156;SDS011;54086;50.126;8.710;2022-07-29T13:39:31;7.43;;;3.93;;
67156;SDS011;54086;50.126;8.710;2022-07-29T13:41:56;9.87;;;4.20;;
67156;SDS011;54086;50.126;8.710;2022-07-29T13:44:21;9.20;;;4.20;;
67156;SDS011;54086;50.126;8.710;2022-07-29T13:46:47;7.18;;;3.88;;
67156;SDS011;54086;50.126;8.710;2022-07-29T13:49:12;11.07;;;5.30;;
67156;SDS011;54086;50.126;8.710;2022-07-29T13:51:38;8.03;;;4.00;;
67156;SDS011;54086;50.126;8.710;2022-07-29T13:54:04;8.15;;;4.35;;
67156;SDS011;54086;50.126;8.710;2022-07-29T13:56:29;8.10;;;4.10;;
67156;SDS011;54086;50.126;8.710;2022-07-29T13:58:55;9.65;;;4.05;;
67156;SDS011;54086;50.126;8.710;2022-07-29T14:01:20;10.40;;;4.57;;
67156;SDS011;54086;50.126;8.710;2022-07-29T14:03:46;8.48;;;4.47;;
67156;SDS011;54086;50.126;8.710;2022-07-29T14:06:11;11.13;;;3.90;;
67156;SDS011;54086;50.126;8.710;2022-07-29T14:08:37;7.87;;;4.03;;
67156;SDS011;54086;50.126;8.710;2022-07-29T14:11:02;8.17;;;3.73;;
67156;SDS011;54086;50.126;8.710;2022-07-29T14:13:29;8.02;;;4.10;;
67156;SDS011;54086;50.126;8.710;2022-07-29T14:15:54;7.22;;;3.97;;
67156;SDS011;54086;50.126;8.710;2022-07-29T14:18:20;8.03;;;3.93;;
67156;SDS011;54086;50.126;8.710;2022-07-29T14:20:45;11.03;;;4.43;;
67156;SDS011;54086;50.126;8.710;2022-07-29T14:23:10;7.67;;;4.10;;
67156;SDS011;54086;50.126;8.710;2022-07-29T14:25:36;8.23;;;4.13;;
67156;SDS011;54086;50.126;8.710;2022-07-29T14:28:01;8.18;;;3.80;;
67156;SDS011;54086;50.126;8.710;2022-07-29T14:30:26;7.30;;;4.00;;
67156;SDS011;54086;50.126;8.710;2022-07-29T14:32:52;7.97;;;4.03;;
67156;SDS011;54086;50.126;8.710;2022-07-29T14:35:17;9.40;;;3.97;;
67156;SDS011;54086;50.126;8.710;2022-07-29T14:37:42;9.70;;;4.53;;
67156;SDS011;54086;50.126;8.710;2022-07-29T14:40:08;7.85;;;3.67;;
67156;SDS011;54086;50.126;8.710;2022-07-29T14:42:34;9.80;;;4.18;;
67156;SDS011;54086;50.126;8.710;2022-07-29T14:45:01;8.95;;;4.55;;
67156;SDS011;54086;50.126;8.710;2022-07-29T14:47:26;9.80;;;4.67;;
67156;SDS011;54086;50.126;8.710;2022-07-29T14:49:52;8.90;;;3.80;;
67156;SDS011;54086;50.126;8.710;2022-07-29T14:52:17;8.63;;;4.35;;
67156;SDS011;54086;50.126;8.710;2022-07-29T14:54:42;8.77;;;4.00;;
67156;SDS011;54086;50.126;8.710;2022-07-29T14:57:08;9.73;;;4.80;;
67156;SDS011;54086;50.126;8.710;2022-07-29T14:59:33;8.87;;;4.30;;
67156;SDS011;54086;50.126;8.710;2022-07-29T15:01:59;14.37;;;5.10;;
67156;SDS011;54086;50.126;8.710;2022-07-29T15:04:24;12.70;;;4.53;;
67156;SDS011;54086;50.126;8.710;2022-07-29T15:06:50;7.70;;;4.40;;
67156;SDS011;54086;50.126;8.710;2022-07-29T15:09:16;8.05;;;4.18;;
67156;SDS011;54086;50.126;8.710;2022-07-29T15:11:42;8.70;;;3.83;;
67156;SDS011;54086;50.126;8.710;2022-07-29T15:14:08;10.37;;;4.83;;
67156;SDS011;54086;50.126;8.710;2022-07-29T15:16:37;8.10;;;4.40;;
67156;SDS011;54086;50.126;8.710;2022-07-29T15:19:03;10.63;;;4.63;;
67156;SDS011;54086;50.126;8.710;2022-07-29T15:21:29;7.72;;;4.20;;
67156;SDS011;54086;50.126;8.710;2022-07-29T15:23:55;10.90;;;4.63;;
67156;SDS011;54086;50.126;8.710;2022-07-29T15:26:20;10.88;;;4.93;;
67156;SDS011;54086;50.126;8.710;2022-07-29T15:28:46;9.70;;;4.77;;
67156;SDS011;54086;50.126;8.710;2022-07-29T15:31:12;9.35;;;4.57;;
67156;SDS011;54086;50.126;8.710;2022-07-29T15:33:37;10.33;;;3.77;;
67156;SDS011;54086;50.126;8.710;2022-07-29T15:36:03;8.10;;;3.70;;
67156;SDS011;54086;50.126;8.710;2022-07-29T15:38:29;9.80;;;4.00;;
67156;SDS011;54086;50.126;8.710;2022-07-29T15:40:55;6.53;;;3.42;;
67156;SDS011;54086;50.126;8.710;2022-07-29T15:43:21;8.40;;;3.42;;